sensor_id;sensor_type;location;lat;lon;timestamp;P1;durP1;ratioP1;P2;durP2;ratioP2
53207;SDS011;39093;52.788;6.940;2023-04-10T00:00:35;70.18;;;42.75;;
53207;SDS011;39093;52.788;6.940;2023-04-10T00:03:03;61.83;;;40.05;;
53207;SDS011;39093;52.788;6.940;2023-04-10T00:05:31;74.68;;;42.90;;
53207;SDS011;39093;52.788;6.940;2023-04-10T00:07:58;65.22;;;39.70;;
53207;SDS011;39093;52.788;6.940;2023-04-10T00:10:26;62.53;;;40.00;;
53207;SDS011;39093;52.788;6.940;2023-04-10T00:12:55;62.65;;;39.17;;
53207;SDS011;39093;52.788;6.940;2023-04-10T00:15:23;60.45;;;38.63;;
53207;SDS011;39093;52.788;6.940;2023-04-10T00:17:49;58.30;;;38.35;;
53207;SDS011;39093;52.788;6.940;2023-04-10T00:20:21;62.30;;;38.67;;
53207;SDS011;39093;52.788;6.940;2023-04-10T00:22:48;61.40;;;39.08;;
53207;SDS011;39093;52.788;6.940;2023-04-10T00:25:15;66.07;;;38.88;;
53207;SDS011;39093;52.788;6.940;2023-04-10T00:27:42;62.45;;;38.80;;
53207;SDS011;39093;52.788;6.940;2023-04-10T00:30:09;66.00;;;40.22;;
53207;SDS011;39093;52.788;6.940;2023-04-10T00:32:36;56.47;;;37.42;;
53207;SDS011;39093;52.788;6.940;2023-04-10T00:35:03;62.47;;;40.28;;
53207;SDS011;39093;52.788;6.940;2023-04-10T00:37:30;60.42;;;39.67;;
53207;SDS011;39093;52.788;6.940;2023-04-10T00:39:57;60.05;;;40.35;;
53207;SDS011;39093;52.788;6.940;2023-04-10T00:42:24;64.53;;;39.20;;
53207;SDS011;39093;52.788;6.940;2023-04-10T00:44:51;64.63;;;41.65;;
53207;SDS011;39093;52.788;6.940;2023-04-10T00:47:18;67.40;;;41.08;;
53207;SDS011;39093;52.788;6.940;2023-04-10T00:49:45;62.25;;;39.40;;
53207;SDS011;39093;52.788;6.940;2023-04-10T00:52:12;61.80;;;40.08;;
53207;SDS011;39093;52.788;6.940;2023-04-10T00:54:39;61.00;;;39.55;;
53207;SDS011;39093;52.788;6.940;2023-04-10T00:57:06;62.42;;;39.83;;
53207;SDS011;39093;52.788;6.940;2023-04-10T00:59:34;61.85;;;40.05;;
53207;SDS011;39093;52.788;6.940;2023-04-10T01:02:01;64.95;;;39.60;;
53207;SDS011;39093;52.788;6.940;2023-04-10T01:04:29;63.20;;;40.85;;
53207;SDS011;39093;52.788;6.940;2023-04-10T01:06:58;60.80;;;40.38;;
53207;SDS011;39093;52.788;6.940;2023-04-10T01:09:37;60.13;;;40.72;;
53207;SDS011;39093;52.788;6.940;2023-04-10T01:14:57;62.60;;;41.08;;
53207;SDS011;39093;52.788;6.940;2023-04-10T01:17:49;61.58;;;41.22;;
53207;SDS011;39093;52.788;6.940;2023-04-10T01:20:26;66.05;;;40.95;;
53207;SDS011;39093;52.788;6.940;2023-04-10T01:30:57;64.95;;;40.55;;
53207;SDS011;39093;52.788;6.940;2023-04-10T01:33:28;65.75;;;41.92;;
53207;SDS011;39093;52.788;6.940;2023-04-10T01:36:00;74.18;;;41.35;;
53207;SDS011;39093;52.788;6.940;2023-04-10T01:38:30;62.25;;;39.85;;
53207;SDS011;39093;52.788;6.940;2023-04-10T01:40:59;69.55;;;42.80;;
53207;SDS011;39093;52.788;6.940;2023-04-10T01:43:28;63.75;;;41.00;;
53207;SDS011;39093;52.788;6.940;2023-04-10T01:45:57;62.65;;;39.80;;
53207;SDS011;39093;52.788;6.940;2023-04-10T01:48:26;69.90;;;43.13;;
53207;SDS011;39093;52.788;6.940;2023-04-10T01:50:53;66.97;;;42.22;;
53207;SDS011;39093;52.788;6.940;2023-04-10T01:53:22;70.47;;;41.33;;
53207;SDS011;39093;52.788;6.940;2023-04-10T01:55:49;67.53;;;41.80;;
53207;SDS011;39093;52.788;6.940;2023-04-10T01:58:18;63.80;;;41.75;;
53207;SDS011;39093;52.788;6.940;2023-04-10T02:00:45;66.90;;;41.80;;
53207;SDS011;39093;52.788;6.940;2023-04-10T02:03:12;65.03;;;41.28;;
53207;SDS011;39093;52.788;6.940;2023-04-10T02:08:33;62.35;;;40.83;;
53207;SDS011;39093;52.788;6.940;2023-04-10T02:11:35;69.72;;;40.72;;
53207;SDS011;39093;52.788;6.940;2023-04-10T02:14:09;61.00;;;39.97;;
53207;SDS011;39093;52.788;6.940;2023-04-10T02:16:37;60.85;;;39.67;;
53207;SDS011;39093;52.788;6.940;2023-04-10T02:19:05;64.15;;;39.40;;
53207;SDS011;39093;52.788;6.940;2023-04-10T02:21:34;61.20;;;39.10;;
53207;SDS011;39093;52.788;6.940;2023-04-10T02:24:01;59.63;;;38.75;;
53207;SDS011;39093;52.788;6.940;2023-04-10T02:26:28;56.95;;;37.80;;
53207;SDS011;39093;52.788;6.940;2023-04-10T02:28:55;57.45;;;36.92;;
53207;SDS011;39093;52.788;6.940;2023-04-10T02:31:22;59.38;;;37.70;;
53207;SDS011;39093;52.788;6.940;2023-04-10T02:33:50;59.88;;;37.22;;
53207;SDS011;39093;52.788;6.940;2023-04-10T02:36:17;57.55;;;36.10;;
53207;SDS011;39093;52.788;6.940;2023-04-10T02:38:44;53.65;;;34.97;;
53207;SDS011;39093;52.788;6.940;2023-04-10T02:41:11;58.33;;;35.55;;
53207;SDS011;39093;52.788;6.940;2023-04-10T02:43:38;59.10;;;36.55;;
53207;SDS011;39093;52.788;6.940;2023-04-10T02:46:05;59.17;;;36.08;;
53207;SDS011;39093;52.788;6.940;2023-04-10T02:48:32;53.55;;;34.05;;
53207;SDS011;39093;52.788;6.940;2023-04-10T02:50:59;59.58;;;36.05;;
53207;SDS011;39093;52.788;6.940;2023-04-10T02:53:26;54.88;;;34.72;;
53207;SDS011;39093;52.788;6.940;2023-04-10T02:55:52;53.35;;;35.08;;
53207;SDS011;39093;52.788;6.940;2023-04-10T02:58:20;62.90;;;38.13;;
53207;SDS011;39093;52.788;6.940;2023-04-10T03:00:50;55.85;;;34.88;;
53207;SDS011;39093;52.788;6.940;2023-04-10T03:03:17;53.20;;;35.00;;
53207;SDS011;39093;52.788;6.940;2023-04-10T03:05:45;58.35;;;36.28;;
53207;SDS011;39093;52.788;6.940;2023-04-10T03:08:15;57.05;;;36.15;;
53207;SDS011;39093;52.788;6.940;2023-04-10T03:10:43;55.22;;;35.55;;
53207;SDS011;39093;52.788;6.940;2023-04-10T03:13:11;56.88;;;36.78;;
53207;SDS011;39093;52.788;6.940;2023-04-10T03:15:38;63.85;;;37.42;;
53207;SDS011;39093;52.788;6.940;2023-04-10T03:18:05;59.95;;;38.45;;
53207;SDS011;39093;52.788;6.940;2023-04-10T03:20:32;57.92;;;37.10;;
53207;SDS011;39093;52.788;6.940;2023-04-10T03:22:59;60.50;;;37.60;;
53207;SDS011;39093;52.788;6.940;2023-04-10T03:25:26;62.35;;;38.47;;
53207;SDS011;39093;52.788;6.940;2023-04-10T03:27:53;63.20;;;39.35;;
53207;SDS011;39093;52.788;6.940;2023-04-10T03:30:19;63.55;;;38.00;;
53207;SDS011;39093;52.788;6.940;2023-04-10T03:32:46;65.65;;;40.78;;
53207;SDS011;39093;52.788;6.940;2023-04-10T03:35:13;72.10;;;40.72;;
53207;SDS011;39093;52.788;6.940;2023-04-10T03:37:40;65.05;;;40.55;;
53207;SDS011;39093;52.788;6.940;2023-04-10T03:40:08;65.40;;;40.08;;
53207;SDS011;39093;52.788;6.940;2023-04-10T03:42:36;66.38;;;41.20;;
53207;SDS011;39093;52.788;6.940;2023-04-10T03:45:03;70.88;;;42.80;;
53207;SDS011;39093;52.788;6.940;2023-04-10T03:47:31;72.47;;;43.78;;
53207;SDS011;39093;52.788;6.940;2023-04-10T03:49:59;75.40;;;43.63;;
53207;SDS011;39093;52.788;6.940;2023-04-10T03:52:26;71.25;;;43.92;;
53207;SDS011;39093;52.788;6.940;2023-04-10T03:54:53;71.00;;;42.63;;
53207;SDS011;39093;52.788;6.940;2023-04-10T03:57:20;77.03;;;45.70;;
53207;SDS011;39093;52.788;6.940;2023-04-10T03:59:47;73.55;;;42.97;;
53207;SDS011;39093;52.788;6.940;2023-04-10T04:02:14;74.82;;;45.65;;
53207;SDS011;39093;52.788;6.940;2023-04-10T04:04:42;76.65;;;47.90;;
53207;SDS011;39093;52.788;6.940;2023-04-10T04:07:09;75.57;;;44.63;;
53207;SDS011;39093;52.788;6.940;2023-04-10T04:09:37;70.32;;;43.35;;
53207;SDS011;39093;52.788;6.940;2023-04-10T04:12:04;79.82;;;46.50;;
53207;SDS011;39093;52.788;6.940;2023-04-10T04:14:31;79.18;;;47.30;;
53207;SDS011;39093;52.788;6.940;2023-04-10T04:16:58;75.40;;;45.95;;
53207;SDS011;39093;52.788;6.940;2023-04-10T04:19:25;73.18;;;45.70;;
53207;SDS011;39093;52.788;6.940;2023-04-10T04:21:52;80.15;;;49.75;;
53207;SDS011;39093;52.788;6.940;2023-04-10T04:24:18;75.30;;;45.28;;
53207;SDS011;39093;52.788;6.940;2023-04-10T04:26:45;76.20;;;46.88;;
53207;SDS011;39093;52.788;6.940;2023-04-10T04:29:12;73.85;;;46.83;;
53207;SDS011;39093;52.788;6.940;2023-04-10T04:31:39;75.78;;;47.03;;
53207;SDS011;39093;52.788;6.940;2023-04-10T04:34:06;74.88;;;46.42;;
53207;SDS011;39093;52.788;6.940;2023-04-10T04:36:33;75.90;;;47.85;;
53207;SDS011;39093;52.788;6.940;2023-04-10T04:39:00;78.68;;;48.25;;
53207;SDS011;39093;52.788;6.940;2023-04-10T04:41:26;73.78;;;46.30;;
53207;SDS011;39093;52.788;6.940;2023-04-10T04:43:55;81.15;;;47.20;;
53207;SDS011;39093;52.788;6.940;2023-04-10T04:46:27;75.53;;;47.75;;
53207;SDS011;39093;52.788;6.940;2023-04-10T04:48:54;73.55;;;45.63;;
53207;SDS011;39093;52.788;6.940;2023-04-10T04:51:21;77.45;;;46.67;;
53207;SDS011;39093;52.788;6.940;2023-04-10T04:53:48;75.78;;;48.83;;
53207;SDS011;39093;52.788;6.940;2023-04-10T04:56:15;78.18;;;47.92;;
53207;SDS011;39093;52.788;6.940;2023-04-10T04:58:42;81.30;;;50.13;;
53207;SDS011;39093;52.788;6.940;2023-04-10T05:01:09;78.45;;;48.60;;
53207;SDS011;39093;52.788;6.940;2023-04-10T05:03:36;77.25;;;49.38;;
53207;SDS011;39093;52.788;6.940;2023-04-10T05:06:03;80.75;;;50.50;;
53207;SDS011;39093;52.788;6.940;2023-04-10T05:08:30;76.60;;;48.20;;
53207;SDS011;39093;52.788;6.940;2023-04-10T05:10:57;79.00;;;47.05;;
53207;SDS011;39093;52.788;6.940;2023-04-10T05:13:24;78.85;;;49.05;;
53207;SDS011;39093;52.788;6.940;2023-04-10T05:15:51;77.10;;;47.05;;
53207;SDS011;39093;52.788;6.940;2023-04-10T05:18:18;76.72;;;47.25;;
53207;SDS011;39093;52.788;6.940;2023-04-10T05:20:49;76.90;;;47.72;;
53207;SDS011;39093;52.788;6.940;2023-04-10T05:23:16;73.57;;;47.58;;
53207;SDS011;39093;52.788;6.940;2023-04-10T05:25:42;78.57;;;47.92;;
53207;SDS011;39093;52.788;6.940;2023-04-10T05:28:09;80.40;;;48.80;;
53207;SDS011;39093;52.788;6.940;2023-04-10T05:30:36;82.55;;;49.25;;
53207;SDS011;39093;52.788;6.940;2023-04-10T05:33:03;77.45;;;46.90;;
53207;SDS011;39093;52.788;6.940;2023-04-10T05:35:30;77.78;;;46.95;;
53207;SDS011;39093;52.788;6.940;2023-04-10T05:37:57;81.05;;;48.72;;
53207;SDS011;39093;52.788;6.940;2023-04-10T05:40:24;73.82;;;46.67;;
53207;SDS011;39093;52.788;6.940;2023-04-10T05:42:51;76.03;;;48.17;;
53207;SDS011;39093;52.788;6.940;2023-04-10T05:45:18;75.63;;;46.97;;
53207;SDS011;39093;52.788;6.940;2023-04-10T05:47:45;80.22;;;47.92;;
53207;SDS011;39093;52.788;6.940;2023-04-10T05:50:12;75.65;;;47.45;;
53207;SDS011;39093;52.788;6.940;2023-04-10T05:52:39;73.00;;;47.08;;
53207;SDS011;39093;52.788;6.940;2023-04-10T05:55:06;73.80;;;45.15;;
53207;SDS011;39093;52.788;6.940;2023-04-10T05:57:33;71.70;;;45.58;;
53207;SDS011;39093;52.788;6.940;2023-04-10T06:00:00;74.18;;;46.75;;
53207;SDS011;39093;52.788;6.940;2023-04-10T06:02:27;75.95;;;46.58;;
53207;SDS011;39093;52.788;6.940;2023-04-10T06:04:54;74.93;;;45.72;;
53207;SDS011;39093;52.788;6.940;2023-04-10T06:07:21;77.18;;;47.47;;
53207;SDS011;39093;52.788;6.940;2023-04-10T06:09:48;74.22;;;44.70;;
53207;SDS011;39093;52.788;6.940;2023-04-10T06:12:15;69.75;;;42.92;;
53207;SDS011;39093;52.788;6.940;2023-04-10T06:14:42;72.10;;;43.80;;
53207;SDS011;39093;52.788;6.940;2023-04-10T06:17:09;70.22;;;42.88;;
53207;SDS011;39093;52.788;6.940;2023-04-10T06:19:36;67.13;;;43.88;;
53207;SDS011;39093;52.788;6.940;2023-04-10T06:22:03;72.30;;;43.58;;
53207;SDS011;39093;52.788;6.940;2023-04-10T06:24:30;67.43;;;41.33;;
53207;SDS011;39093;52.788;6.940;2023-04-10T06:26:57;65.53;;;41.25;;
53207;SDS011;39093;52.788;6.940;2023-04-10T06:29:24;65.72;;;40.38;;
53207;SDS011;39093;52.788;6.940;2023-04-10T06:31:51;61.00;;;39.85;;
53207;SDS011;39093;52.788;6.940;2023-04-10T06:34:18;61.03;;;38.20;;
53207;SDS011;39093;52.788;6.940;2023-04-10T06:36:45;63.63;;;39.33;;
53207;SDS011;39093;52.788;6.940;2023-04-10T06:39:12;59.63;;;39.15;;
53207;SDS011;39093;52.788;6.940;2023-04-10T06:41:39;62.58;;;39.53;;
53207;SDS011;39093;52.788;6.940;2023-04-10T06:44:06;66.80;;;39.85;;
53207;SDS011;39093;52.788;6.940;2023-04-10T06:46:33;61.45;;;39.20;;
53207;SDS011;39093;52.788;6.940;2023-04-10T06:49:00;57.80;;;36.55;;
53207;SDS011;39093;52.788;6.940;2023-04-10T06:51:27;58.20;;;36.88;;
53207;SDS011;39093;52.788;6.940;2023-04-10T06:53:54;54.85;;;36.08;;
53207;SDS011;39093;52.788;6.940;2023-04-10T06:56:21;54.58;;;34.60;;
53207;SDS011;39093;52.788;6.940;2023-04-10T06:58:48;51.83;;;34.17;;
53207;SDS011;39093;52.788;6.940;2023-04-10T07:01:14;52.53;;;33.63;;
53207;SDS011;39093;52.788;6.940;2023-04-10T07:03:43;56.13;;;34.17;;
53207;SDS011;39093;52.788;6.940;2023-04-10T07:06:10;52.72;;;32.97;;
53207;SDS011;39093;52.788;6.940;2023-04-10T07:08:37;51.33;;;32.42;;
53207;SDS011;39093;52.788;6.940;2023-04-10T07:11:04;52.60;;;32.25;;
53207;SDS011;39093;52.788;6.940;2023-04-10T07:13:31;51.67;;;32.72;;
53207;SDS011;39093;52.788;6.940;2023-04-10T07:16:00;47.53;;;31.77;;
53207;SDS011;39093;52.788;6.940;2023-04-10T07:18:27;48.38;;;31.38;;
53207;SDS011;39093;52.788;6.940;2023-04-10T07:20:54;50.88;;;32.40;;
53207;SDS011;39093;52.788;6.940;2023-04-10T07:23:21;48.00;;;31.10;;
53207;SDS011;39093;52.788;6.940;2023-04-10T07:25:48;47.78;;;30.73;;
53207;SDS011;39093;52.788;6.940;2023-04-10T07:28:16;49.42;;;31.05;;
53207;SDS011;39093;52.788;6.940;2023-04-10T07:30:43;45.13;;;29.65;;
53207;SDS011;39093;52.788;6.940;2023-04-10T07:33:10;47.67;;;29.65;;
53207;SDS011;39093;52.788;6.940;2023-04-10T07:35:37;42.80;;;29.00;;
53207;SDS011;39093;52.788;6.940;2023-04-10T07:38:04;42.67;;;27.90;;
53207;SDS011;39093;52.788;6.940;2023-04-10T07:40:31;41.03;;;27.15;;
53207;SDS011;39093;52.788;6.940;2023-04-10T07:42:58;41.58;;;26.00;;
53207;SDS011;39093;52.788;6.940;2023-04-10T07:45:25;38.75;;;26.02;;
53207;SDS011;39093;52.788;6.940;2023-04-10T07:47:53;39.10;;;26.35;;
53207;SDS011;39093;52.788;6.940;2023-04-10T07:50:21;37.55;;;24.50;;
53207;SDS011;39093;52.788;6.940;2023-04-10T07:52:48;37.03;;;24.63;;
53207;SDS011;39093;52.788;6.940;2023-04-10T07:55:15;34.17;;;22.60;;
53207;SDS011;39093;52.788;6.940;2023-04-10T07:57:42;36.15;;;23.08;;
53207;SDS011;39093;52.788;6.940;2023-04-10T08:00:09;36.50;;;24.10;;
53207;SDS011;39093;52.788;6.940;2023-04-10T08:02:37;37.47;;;23.35;;
53207;SDS011;39093;52.788;6.940;2023-04-10T08:05:06;35.38;;;23.23;;
53207;SDS011;39093;52.788;6.940;2023-04-10T08:07:33;36.60;;;24.15;;
53207;SDS011;39093;52.788;6.940;2023-04-10T08:10:01;33.13;;;21.45;;
53207;SDS011;39093;52.788;6.940;2023-04-10T08:12:29;34.42;;;22.42;;
53207;SDS011;39093;52.788;6.940;2023-04-10T08:14:59;35.67;;;24.35;;
53207;SDS011;39093;52.788;6.940;2023-04-10T08:17:25;34.75;;;21.80;;
53207;SDS011;39093;52.788;6.940;2023-04-10T08:19:52;33.05;;;20.83;;
53207;SDS011;39093;52.788;6.940;2023-04-10T08:22:19;28.48;;;20.10;;
53207;SDS011;39093;52.788;6.940;2023-04-10T08:24:46;33.28;;;21.05;;
53207;SDS011;39093;52.788;6.940;2023-04-10T08:27:13;30.52;;;21.00;;
53207;SDS011;39093;52.788;6.940;2023-04-10T08:29:41;30.50;;;19.92;;
53207;SDS011;39093;52.788;6.940;2023-04-10T08:32:08;32.83;;;23.13;;
53207;SDS011;39093;52.788;6.940;2023-04-10T08:34:35;34.08;;;20.90;;
53207;SDS011;39093;52.788;6.940;2023-04-10T08:37:05;30.92;;;20.42;;
53207;SDS011;39093;52.788;6.940;2023-04-10T08:39:37;28.23;;;20.23;;
53207;SDS011;39093;52.788;6.940;2023-04-10T08:42:04;32.97;;;21.98;;
53207;SDS011;39093;52.788;6.940;2023-04-10T08:44:32;29.20;;;19.95;;
53207;SDS011;39093;52.788;6.940;2023-04-10T08:47:01;30.92;;;20.10;;
53207;SDS011;39093;52.788;6.940;2023-04-10T08:49:41;29.30;;;20.40;;
53207;SDS011;39093;52.788;6.940;2023-04-10T08:52:34;29.88;;;19.90;;
53207;SDS011;39093;52.788;6.940;2023-04-10T08:55:04;31.63;;;19.48;;
53207;SDS011;39093;52.788;6.940;2023-04-10T08:57:35;25.13;;;17.58;;
53207;SDS011;39093;52.788;6.940;2023-04-10T09:00:06;30.15;;;19.70;;
53207;SDS011;39093;52.788;6.940;2023-04-10T09:02:48;26.77;;;18.08;;
53207;SDS011;39093;52.788;6.940;2023-04-10T09:05:20;25.20;;;17.77;;
53207;SDS011;39093;52.788;6.940;2023-04-10T09:07:48;25.15;;;17.48;;
53207;SDS011;39093;52.788;6.940;2023-04-10T09:10:15;26.63;;;17.98;;
53207;SDS011;39093;52.788;6.940;2023-04-10T09:12:45;23.50;;;16.88;;
53207;SDS011;39093;52.788;6.940;2023-04-10T09:15:13;24.02;;;17.02;;
53207;SDS011;39093;52.788;6.940;2023-04-10T09:17:58;25.00;;;16.27;;
53207;SDS011;39093;52.788;6.940;2023-04-10T09:20:28;22.42;;;16.10;;
53207;SDS011;39093;52.788;6.940;2023-04-10T09:22:56;22.98;;;15.52;;
53207;SDS011;39093;52.788;6.940;2023-04-10T09:28:04;24.13;;;16.30;;
53207;SDS011;39093;52.788;6.940;2023-04-10T09:30:33;19.02;;;14.40;;
53207;SDS011;39093;52.788;6.940;2023-04-10T09:33:01;19.77;;;14.23;;
53207;SDS011;39093;52.788;6.940;2023-04-10T09:35:36;19.80;;;14.40;;
53207;SDS011;39093;52.788;6.940;2023-04-10T09:38:13;21.00;;;14.07;;
53207;SDS011;39093;52.788;6.940;2023-04-10T09:40:42;20.65;;;14.35;;
53207;SDS011;39093;52.788;6.940;2023-04-10T09:43:23;18.08;;;13.95;;
53207;SDS011;39093;52.788;6.940;2023-04-10T09:45:52;19.50;;;14.48;;
53207;SDS011;39093;52.788;6.940;2023-04-10T09:48:20;19.27;;;13.50;;
53207;SDS011;39093;52.788;6.940;2023-04-10T09:50:48;18.45;;;13.20;;
53207;SDS011;39093;52.788;6.940;2023-04-10T09:53:19;15.50;;;12.07;;
53207;SDS011;39093;52.788;6.940;2023-04-10T09:55:47;18.70;;;12.52;;
53207;SDS011;39093;52.788;6.940;2023-04-10T09:58:15;17.45;;;11.73;;
53207;SDS011;39093;52.788;6.940;2023-04-10T10:00:46;14.98;;;11.32;;
53207;SDS011;39093;52.788;6.940;2023-04-10T10:03:15;15.50;;;10.68;;
53207;SDS011;39093;52.788;6.940;2023-04-10T10:05:44;14.38;;;10.70;;
53207;SDS011;39093;52.788;6.940;2023-04-10T10:08:16;11.38;;;8.95;;
53207;SDS011;39093;52.788;6.940;2023-04-10T10:10:44;13.35;;;9.38;;
53207;SDS011;39093;52.788;6.940;2023-04-10T10:13:20;12.10;;;8.70;;
53207;SDS011;39093;52.788;6.940;2023-04-10T10:16:12;11.23;;;8.63;;
53207;SDS011;39093;52.788;6.940;2023-04-10T10:18:43;10.27;;;8.20;;
53207;SDS011;39093;52.788;6.940;2023-04-10T10:21:39;11.50;;;8.75;;
53207;SDS011;39093;52.788;6.940;2023-04-10T10:24:09;11.15;;;8.60;;
53207;SDS011;39093;52.788;6.940;2023-04-10T10:26:38;11.93;;;8.80;;
53207;SDS011;39093;52.788;6.940;2023-04-10T10:29:06;15.63;;;8.48;;
53207;SDS011;39093;52.788;6.940;2023-04-10T10:31:36;10.65;;;7.47;;
53207;SDS011;39093;52.788;6.940;2023-04-10T10:34:04;11.63;;;8.02;;
53207;SDS011;39093;52.788;6.940;2023-04-10T10:36:34;11.18;;;7.97;;
53207;SDS011;39093;52.788;6.940;2023-04-10T10:41:39;10.93;;;8.05;;
53207;SDS011;39093;52.788;6.940;2023-04-10T10:44:15;10.05;;;7.32;;
53207;SDS011;39093;52.788;6.940;2023-04-10T10:46:58;10.02;;;7.47;;
53207;SDS011;39093;52.788;6.940;2023-04-10T10:52:37;9.15;;;6.47;;
53207;SDS011;39093;52.788;6.940;2023-04-10T10:58:06;6.88;;;5.50;;
53207;SDS011;39093;52.788;6.940;2023-04-10T11:08:34;7.28;;;5.47;;
53207;SDS011;39093;52.788;6.940;2023-04-10T11:11:06;9.55;;;5.85;;
53207;SDS011;39093;52.788;6.940;2023-04-10T11:13:38;6.00;;;5.40;;
53207;SDS011;39093;52.788;6.940;2023-04-10T11:16:07;7.50;;;5.37;;
53207;SDS011;39093;52.788;6.940;2023-04-10T11:21:11;5.95;;;4.85;;
53207;SDS011;39093;52.788;6.940;2023-04-10T11:24:13;5.18;;;4.40;;
53207;SDS011;39093;52.788;6.940;2023-04-10T11:31:42;5.30;;;4.40;;
53207;SDS011;39093;52.788;6.940;2023-04-10T11:34:11;5.20;;;4.10;;
53207;SDS011;39093;52.788;6.940;2023-04-10T11:36:38;6.38;;;4.63;;
53207;SDS011;39093;52.788;6.940;2023-04-10T11:39:13;4.90;;;4.00;;
53207;SDS011;39093;52.788;6.940;2023-04-10T11:41:44;4.30;;;3.50;;
53207;SDS011;39093;52.788;6.940;2023-04-10T11:44:16;5.40;;;4.03;;
53207;SDS011;39093;52.788;6.940;2023-04-10T11:46:53;5.35;;;3.75;;
53207;SDS011;39093;52.788;6.940;2023-04-10T11:49:21;5.38;;;2.97;;
53207;SDS011;39093;52.788;6.940;2023-04-10T11:51:53;5.78;;;3.60;;
53207;SDS011;39093;52.788;6.940;2023-04-10T11:54:21;4.95;;;3.30;;
53207;SDS011;39093;52.788;6.940;2023-04-10T11:59:30;5.70;;;3.05;;
53207;SDS011;39093;52.788;6.940;2023-04-10T12:04:41;5.27;;;2.87;;
53207;SDS011;39093;52.788;6.940;2023-04-10T12:07:09;4.40;;;2.92;;
53207;SDS011;39093;52.788;6.940;2023-04-10T12:09:36;5.20;;;3.08;;
53207;SDS011;39093;52.788;6.940;2023-04-10T12:12:04;3.75;;;2.60;;
53207;SDS011;39093;52.788;6.940;2023-04-10T12:14:33;3.67;;;2.75;;
53207;SDS011;39093;52.788;6.940;2023-04-10T12:17:02;5.82;;;2.90;;
53207;SDS011;39093;52.788;6.940;2023-04-10T12:19:30;3.75;;;3.10;;
53207;SDS011;39093;52.788;6.940;2023-04-10T12:21:59;3.85;;;2.45;;
53207;SDS011;39093;52.788;6.940;2023-04-10T12:24:41;3.50;;;2.83;;
53207;SDS011;39093;52.788;6.940;2023-04-10T12:27:24;4.45;;;3.17;;
53207;SDS011;39093;52.788;6.940;2023-04-10T12:29:53;4.15;;;2.80;;
53207;SDS011;39093;52.788;6.940;2023-04-10T12:32:21;3.25;;;2.80;;
53207;SDS011;39093;52.788;6.940;2023-04-10T12:34:53;4.13;;;2.83;;
53207;SDS011;39093;52.788;6.940;2023-04-10T12:37:24;3.92;;;2.90;;
53207;SDS011;39093;52.788;6.940;2023-04-10T12:40:11;5.45;;;2.72;;
53207;SDS011;39093;52.788;6.940;2023-04-10T12:42:39;4.70;;;2.70;;
53207;SDS011;39093;52.788;6.940;2023-04-10T12:45:10;5.07;;;2.47;;
53207;SDS011;39093;52.788;6.940;2023-04-10T12:47:43;6.93;;;2.45;;
53207;SDS011;39093;52.788;6.940;2023-04-10T12:50:15;3.13;;;2.83;;
53207;SDS011;39093;52.788;6.940;2023-04-10T12:52:43;4.40;;;2.60;;
53207;SDS011;39093;52.788;6.940;2023-04-10T12:55:15;4.68;;;2.85;;
53207;SDS011;39093;52.788;6.940;2023-04-10T12:57:44;3.40;;;3.00;;
53207;SDS011;39093;52.788;6.940;2023-04-10T13:00:17;4.70;;;3.15;;
53207;SDS011;39093;52.788;6.940;2023-04-10T13:02:45;4.00;;;2.72;;
53207;SDS011;39093;52.788;6.940;2023-04-10T13:05:14;6.80;;;3.00;;
53207;SDS011;39093;52.788;6.940;2023-04-10T13:07:41;2.92;;;2.60;;
53207;SDS011;39093;52.788;6.940;2023-04-10T13:10:08;3.85;;;2.75;;
53207;SDS011;39093;52.788;6.940;2023-04-10T13:12:35;4.78;;;3.00;;
53207;SDS011;39093;52.788;6.940;2023-04-10T13:15:04;7.68;;;3.50;;
53207;SDS011;39093;52.788;6.940;2023-04-10T13:17:33;4.93;;;2.92;;
53207;SDS011;39093;52.788;6.940;2023-04-10T13:20:00;6.40;;;3.25;;
53207;SDS011;39093;52.788;6.940;2023-04-10T13:22:27;5.50;;;2.97;;
53207;SDS011;39093;52.788;6.940;2023-04-10T13:24:53;3.80;;;2.85;;
53207;SDS011;39093;52.788;6.940;2023-04-10T13:27:20;5.13;;;2.78;;
53207;SDS011;39093;52.788;6.940;2023-04-10T13:29:47;5.32;;;3.55;;
53207;SDS011;39093;52.788;6.940;2023-04-10T13:32:14;4.13;;;2.85;;
53207;SDS011;39093;52.788;6.940;2023-04-10T13:34:41;3.33;;;2.65;;
53207;SDS011;39093;52.788;6.940;2023-04-10T13:37:10;4.28;;;2.55;;
53207;SDS011;39093;52.788;6.940;2023-04-10T13:39:40;6.65;;;2.80;;
53207;SDS011;39093;52.788;6.940;2023-04-10T13:42:08;3.38;;;2.90;;
53207;SDS011;39093;52.788;6.940;2023-04-10T13:44:35;5.82;;;2.80;;
53207;SDS011;39093;52.788;6.940;2023-04-10T13:47:05;4.30;;;2.63;;
53207;SDS011;39093;52.788;6.940;2023-04-10T13:49:32;10.20;;;3.22;;
53207;SDS011;39093;52.788;6.940;2023-04-10T13:51:59;5.65;;;3.05;;
53207;SDS011;39093;52.788;6.940;2023-04-10T13:54:26;4.07;;;2.72;;
53207;SDS011;39093;52.788;6.940;2023-04-10T13:56:53;4.15;;;2.60;;
53207;SDS011;39093;52.788;6.940;2023-04-10T13:59:21;2.60;;;2.20;;
53207;SDS011;39093;52.788;6.940;2023-04-10T14:01:50;4.63;;;3.00;;
53207;SDS011;39093;52.788;6.940;2023-04-10T14:04:18;3.95;;;2.60;;
53207;SDS011;39093;52.788;6.940;2023-04-10T14:06:45;3.72;;;3.22;;
53207;SDS011;39093;52.788;6.940;2023-04-10T14:09:13;3.33;;;2.42;;
53207;SDS011;39093;52.788;6.940;2023-04-10T14:11:39;9.20;;;2.33;;
53207;SDS011;39093;52.788;6.940;2023-04-10T14:14:06;5.43;;;2.40;;
53207;SDS011;39093;52.788;6.940;2023-04-10T14:16:33;2.58;;;2.38;;
53207;SDS011;39093;52.788;6.940;2023-04-10T14:19:00;3.20;;;2.53;;
53207;SDS011;39093;52.788;6.940;2023-04-10T14:21:28;2.47;;;2.28;;
53207;SDS011;39093;52.788;6.940;2023-04-10T14:23:56;4.28;;;2.33;;
53207;SDS011;39093;52.788;6.940;2023-04-10T14:26:25;2.67;;;2.22;;
53207;SDS011;39093;52.788;6.940;2023-04-10T14:28:52;3.40;;;2.30;;
53207;SDS011;39093;52.788;6.940;2023-04-10T14:31:19;3.42;;;2.53;;
53207;SDS011;39093;52.788;6.940;2023-04-10T14:33:46;4.72;;;2.25;;
53207;SDS011;39093;52.788;6.940;2023-04-10T14:36:13;3.65;;;2.58;;
53207;SDS011;39093;52.788;6.940;2023-04-10T14:38:40;2.85;;;2.15;;
53207;SDS011;39093;52.788;6.940;2023-04-10T14:41:07;3.25;;;2.33;;
53207;SDS011;39093;52.788;6.940;2023-04-10T14:43:34;2.50;;;2.22;;
53207;SDS011;39093;52.788;6.940;2023-04-10T14:46:01;3.33;;;2.17;;
53207;SDS011;39093;52.788;6.940;2023-04-10T14:48:27;4.93;;;2.40;;
53207;SDS011;39093;52.788;6.940;2023-04-10T14:50:55;3.28;;;2.45;;
53207;SDS011;39093;52.788;6.940;2023-04-10T14:53:24;2.70;;;2.22;;
53207;SDS011;39093;52.788;6.940;2023-04-10T14:55:51;3.70;;;2.47;;
53207;SDS011;39093;52.788;6.940;2023-04-10T14:58:18;3.40;;;2.28;;
53207;SDS011;39093;52.788;6.940;2023-04-10T15:00:45;4.05;;;2.08;;
53207;SDS011;39093;52.788;6.940;2023-04-10T15:03:12;3.35;;;2.30;;
53207;SDS011;39093;52.788;6.940;2023-04-10T15:05:39;5.55;;;2.10;;
53207;SDS011;39093;52.788;6.940;2023-04-10T15:08:06;3.47;;;2.22;;
53207;SDS011;39093;52.788;6.940;2023-04-10T15:10:33;3.08;;;2.15;;
53207;SDS011;39093;52.788;6.940;2023-04-10T15:13:02;2.90;;;2.20;;
53207;SDS011;39093;52.788;6.940;2023-04-10T15:15:31;4.00;;;2.60;;
53207;SDS011;39093;52.788;6.940;2023-04-10T15:17:58;4.50;;;2.53;;
53207;SDS011;39093;52.788;6.940;2023-04-10T15:20:25;5.13;;;2.70;;
53207;SDS011;39093;52.788;6.940;2023-04-10T15:22:51;2.75;;;2.28;;